createdAt,value
2018-04-19T00:06:48.282Z,65.98
2018-04-19T00:09:16.428Z,66.27
2018-04-19T00:11:44.575Z,66.02
2018-04-19T00:14:12.708Z,66.21
2018-04-19T00:16:40.850Z,66.69
2018-04-19T00:19:08.968Z,66.18
2018-04-19T00:21:37.095Z,66.23
2018-04-19T00:24:05.257Z,66.17
2018-04-19T00:26:33.384Z,66.21
2018-04-19T00:29:01.534Z,65.94
2018-04-19T00:31:29.665Z,66.05
2018-04-19T00:33:57.816Z,65.87
2018-04-19T00:36:25.932Z,65.67
2018-04-19T00:38:54.077Z,65.52
2018-04-19T00:41:22.189Z,64.99
2018-04-19T00:43:50.323Z,66.07
2018-04-19T00:46:18.484Z,65.55
2018-04-19T00:48:46.598Z,65.92
2018-04-19T00:51:14.726Z,65.56
2018-04-19T00:53:42.864Z,65.78
2018-04-19T00:56:11.010Z,65.84
2018-04-19T00:58:39.161Z,65.41
2018-04-19T01:01:07.299Z,65.57
2018-04-19T01:03:35.422Z,64.89
2018-04-19T01:06:03.573Z,64.64
2018-04-19T01:08:31.719Z,64.05
2018-04-19T01:10:59.844Z,63.89
2018-04-19T01:13:27.979Z,61.98
2018-04-19T01:15:56.131Z,62.90
2018-04-19T01:18:24.268Z,63.36
2018-04-19T01:20:52.390Z,63.65
2018-04-19T01:23:20.873Z,62.56
2018-04-19T01:25:49.017Z,62.70
2018-04-19T01:28:17.146Z,63.06
2018-04-19T01:30:45.301Z,63.29
2018-04-19T01:33:13.412Z,62.11
2018-04-19T01:35:53.355Z,62.44
2018-04-19T01:38:21.465Z,63.01
2018-04-19T01:40:49.606Z,63.17
2018-04-19T01:43:17.798Z,63.03
2018-04-19T01:45:45.951Z,62.26
2018-04-19T01:48:14.100Z,62.54
2018-04-19T01:50:42.223Z,62.07
2018-04-19T01:53:10.350Z,62.10
2018-04-19T01:55:38.471Z,62.29
2018-04-19T01:58:06.597Z,61.73
2018-04-19T02:00:34.744Z,61.11
2018-04-19T02:03:02.871Z,62.00
2018-04-19T02:05:31.007Z,61.96
2018-04-19T02:07:59.183Z,61.44
2018-04-19T02:10:27.268Z,61.84
2018-04-19T02:12:55.419Z,62.04
2018-04-19T02:15:23.786Z,62.36
2018-04-19T02:17:53.201Z,62.22
2018-04-19T02:20:21.315Z,62.36
2018-04-19T02:22:49.440Z,62.31
2018-04-19T02:25:17.580Z,62.31
2018-04-19T02:27:45.685Z,62.28
2018-04-19T02:30:13.806Z,62.23
2018-04-19T02:32:41.962Z,61.55
2018-04-19T02:35:10.232Z,61.32
2018-04-19T02:37:38.366Z,62.28
2018-04-19T02:40:06.476Z,62.60
2018-04-19T02:42:34.621Z,62.37
2018-04-19T02:45:02.775Z,62.22
2018-04-19T02:47:30.914Z,61.98
2018-04-19T02:49:59.045Z,61.88
2018-04-19T02:52:27.194Z,61.38
2018-04-19T02:54:55.317Z,61.02
2018-04-19T02:57:23.450Z,60.94
2018-04-19T02:59:51.560Z,61.84
2018-04-19T03:02:19.718Z,61.81
2018-04-19T03:04:47.855Z,62.51
2018-04-19T03:07:15.991Z,61.54
2018-04-19T03:09:44.104Z,62.62
2018-04-19T03:12:12.233Z,61.86
2018-04-19T03:14:43.753Z,62.51
2018-04-19T03:17:11.866Z,62.09
2018-04-19T03:19:40.117Z,62.56
2018-04-19T03:22:08.258Z,62.96
2018-04-19T03:24:36.378Z,62.65
2018-04-19T03:27:04.528Z,62.40
2018-04-19T03:29:32.678Z,62.83
2018-04-19T03:32:00.818Z,62.40
2018-04-19T03:34:28.946Z,62.48
2018-04-19T03:36:57.070Z,62.02
2018-04-19T03:39:25.207Z,62.72
2018-04-19T03:41:53.382Z,63.16
2018-04-19T03:44:21.530Z,62.65
2018-04-19T03:46:49.674Z,62.23
2018-04-19T03:49:17.823Z,62.90
2018-04-19T03:51:45.984Z,62.13
2018-04-19T03:54:14.121Z,62.17
2018-04-19T03:56:42.247Z,62.89
2018-04-19T03:59:10.377Z,63.01
2018-04-19T04:01:38.516Z,63.01
2018-04-19T04:04:06.647Z,62.64
2018-04-19T04:06:34.789Z,63.04
2018-04-19T04:09:02.956Z,63.18
2018-04-19T04:11:31.119Z,64.27
2018-04-19T04:14:02.503Z,63.87
2018-04-19T04:16:42.563Z,64.11
2018-04-19T04:19:22.553Z,63.99
2018-04-19T04:22:02.509Z,63.80
2018-04-19T04:24:30.628Z,63.50
2018-04-19T04:26:58.770Z,62.97
2018-04-19T04:29:27.848Z,63.32
2018-04-19T04:31:55.981Z,63.00
2018-04-19T04:34:24.120Z,63.50
2018-04-19T04:36:52.410Z,64.74
2018-04-19T04:39:20.558Z,62.53
2018-04-19T04:41:48.710Z,63.20
2018-04-19T04:44:16.841Z,63.82
2018-04-19T04:46:44.994Z,64.01
2018-04-19T04:49:13.116Z,64.44
2018-04-19T04:51:41.243Z,64.60
2018-04-19T04:54:09.399Z,64.44
2018-04-19T04:56:37.513Z,64.69
2018-04-19T04:59:05.669Z,64.72
2018-04-19T05:01:33.782Z,64.84
2018-04-19T05:04:01.921Z,65.00
2018-04-19T05:06:30.059Z,65.00
2018-04-19T05:08:58.187Z,64.71
2018-04-19T05:11:26.334Z,64.61
2018-04-19T05:13:54.466Z,64.70
2018-04-19T05:16:22.581Z,64.79
2018-04-19T05:18:50.754Z,65.31
2018-04-19T05:21:18.883Z,65.49
2018-04-19T05:23:47.034Z,65.38
2018-04-19T05:26:15.215Z,65.35
2018-04-19T05:28:43.299Z,65.95
2018-04-19T05:31:13.339Z,65.72
2018-04-19T05:33:41.489Z,66.55
2018-04-19T05:36:09.639Z,66.04
2018-04-19T05:38:37.789Z,65.79
2018-04-19T05:41:05.905Z,65.92
2018-04-19T05:43:34.080Z,66.56
2018-04-19T05:46:02.223Z,66.60
2018-04-19T05:48:30.350Z,66.18
2018-04-19T05:50:58.503Z,66.65
2018-04-19T05:53:26.648Z,66.96
2018-04-19T05:55:54.779Z,66.74
2018-04-19T05:58:22.949Z,66.77
2018-04-19T06:00:51.076Z,66.70
2018-04-19T06:03:19.196Z,66.16
2018-04-19T06:05:50.382Z,65.47
2018-04-19T06:08:18.524Z,65.57
2018-04-19T06:10:46.639Z,65.62
2018-04-19T06:13:14.794Z,65.76
2018-04-19T06:15:42.932Z,65.67
2018-04-19T06:18:11.074Z,66.49
2018-04-19T06:20:39.214Z,66.23
2018-04-19T06:23:07.357Z,66.57
2018-04-19T06:25:35.488Z,66.45
2018-04-19T06:28:03.618Z,66.48
2018-04-19T06:30:31.762Z,66.90
2018-04-19T06:32:59.894Z,66.79
2018-04-19T06:35:28.131Z,66.27
2018-04-19T06:38:00.109Z,65.23
2018-04-19T06:40:28.231Z,64.99
2018-04-19T06:42:56.846Z,64.85
2018-04-19T06:45:24.952Z,64.84
2018-04-19T06:47:53.100Z,64.38
2018-04-19T06:50:21.396Z,64.06
2018-04-19T06:52:49.540Z,63.76
2018-04-19T06:55:17.652Z,63.17
2018-04-19T06:57:45.805Z,63.30
2018-04-19T07:00:13.962Z,63.07
2018-04-19T07:02:42.077Z,62.12
2018-04-19T07:05:10.239Z,61.01
2018-04-19T07:07:38.377Z,58.44
2018-04-19T07:10:06.496Z,55.30
2018-04-19T07:12:34.625Z,57.37
2018-04-19T07:15:02.771Z,54.62
2018-04-19T07:17:30.915Z,53.66
2018-04-19T07:19:59.076Z,45.23
2018-04-19T07:22:27.204Z,44.03
2018-04-19T07:24:55.334Z,44.70
2018-04-19T07:27:23.490Z,46.47
2018-04-19T07:29:51.635Z,46.13
2018-04-19T07:32:19.801Z,42.56
2018-04-19T07:34:47.919Z,42.70
2018-04-19T07:37:16.057Z,39.04
2018-04-19T07:39:44.210Z,40.17
2018-04-19T07:42:12.338Z,40.08
2018-04-19T07:44:40.495Z,38.35
2018-04-19T07:47:08.600Z,39.27
2018-04-19T07:49:36.742Z,37.37
2018-04-19T07:52:04.869Z,38.20
2018-04-19T07:54:33.017Z,38.54
2018-04-19T07:57:01.148Z,37.21
2018-04-19T07:59:29.285Z,37.33
2018-04-19T08:01:57.416Z,37.79
2018-04-19T08:04:25.582Z,35.83
2018-04-19T08:06:53.702Z,35.63
2018-04-19T08:09:21.817Z,37.19
2018-04-19T08:11:49.970Z,37.02
2018-04-19T08:14:18.099Z,35.01
2018-04-19T08:16:46.252Z,35.31
2018-04-19T08:19:14.383Z,35.49
2018-04-19T08:21:42.518Z,35.54
2018-04-19T08:24:10.891Z,35.75
2018-04-19T08:26:39.036Z,36.01
2018-04-19T08:29:07.175Z,34.65
2018-04-19T08:31:35.295Z,33.85
2018-04-19T08:34:03.458Z,35.08
2018-04-19T08:36:31.591Z,34.47
2018-04-19T08:38:59.738Z,33.71
2018-04-19T08:41:27.903Z,32.98
2018-04-19T08:43:56.022Z,33.60
2018-04-19T08:46:24.144Z,33.39
2018-04-19T08:48:52.277Z,33.10
2018-04-19T08:51:20.417Z,31.80
2018-04-19T08:53:48.909Z,32.21
2018-04-19T08:56:17.291Z,31.95
2018-04-19T08:58:45.431Z,32.32
2018-04-19T09:01:13.549Z,31.05
2018-04-19T09:03:41.698Z,32.22
2018-04-19T09:06:09.819Z,32.71
2018-04-19T09:08:37.959Z,30.11
2018-04-19T09:11:06.096Z,30.96
2018-04-19T09:13:34.262Z,28.51
2018-04-19T09:16:02.383Z,29.38
2018-04-19T09:18:30.535Z,27.70
2018-04-19T09:20:58.685Z,28.44
2018-04-19T09:23:26.817Z,27.33
2018-04-19T09:25:54.974Z,27.77
2018-04-19T09:28:23.102Z,26.87
2018-04-19T09:30:51.243Z,27.30
2018-04-19T09:33:19.369Z,27.28
2018-04-19T09:35:50.614Z,26.41
2018-04-19T09:38:18.750Z,28.30
2018-04-19T09:40:46.898Z,25.47
2018-04-19T09:43:15.037Z,26.23
2018-04-19T09:45:43.140Z,26.17
2018-04-19T09:48:11.279Z,25.10
2018-04-19T09:50:39.432Z,25.53
2018-04-19T09:53:07.543Z,24.96
2018-04-19T09:55:35.730Z,26.10
2018-04-19T09:58:09.489Z,27.34
2018-04-19T10:00:43.625Z,28.29
2018-04-19T10:03:17.441Z,26.01
2018-04-19T10:05:47.492Z,26.29
2018-04-19T10:08:15.625Z,25.35
2018-04-19T10:10:43.785Z,25.76
2018-04-19T10:13:12.166Z,25.65
2018-04-19T10:15:40.313Z,25.55
2018-04-19T10:18:08.469Z,26.31
2018-04-19T10:20:36.615Z,26.20
2018-04-19T10:23:04.750Z,27.06
2018-04-19T10:25:32.859Z,27.01
2018-04-19T10:28:01.006Z,27.20
2018-04-19T10:30:32.468Z,27.52
2018-04-19T10:33:00.608Z,26.96
2018-04-19T10:35:28.739Z,26.53
2018-04-19T10:37:56.888Z,26.84
2018-04-19T10:40:25.010Z,27.71
2018-04-19T10:42:53.349Z,27.34
2018-04-19T10:45:21.469Z,26.25
2018-04-19T10:47:50.504Z,26.97
2018-04-19T10:50:18.655Z,26.37
2018-04-19T10:52:46.806Z,26.16
2018-04-19T10:55:14.936Z,26.55
2018-04-19T10:57:43.077Z,25.69
2018-04-19T11:00:11.192Z,26.19
2018-04-19T11:02:39.333Z,26.45
2018-04-19T11:05:07.467Z,26.15
2018-04-19T11:07:35.597Z,27.37
2018-04-19T11:10:03.724Z,26.33
2018-04-19T11:12:31.861Z,25.17
2018-04-19T11:14:59.992Z,24.63
2018-04-19T11:17:28.122Z,24.15
2018-04-19T11:19:56.285Z,25.44
2018-04-19T11:22:24.415Z,25.38
2018-04-19T11:24:52.556Z,25.22
2018-04-19T11:27:20.719Z,26.55
2018-04-19T11:29:48.851Z,23.64
2018-04-19T11:32:17.014Z,25.38
2018-04-19T11:34:45.190Z,23.14
2018-04-19T11:37:13.334Z,24.33
2018-04-19T11:39:41.541Z,25.49
2018-04-19T11:42:09.717Z,24.96
2018-04-19T11:44:39.766Z,23.00
2018-04-19T11:47:07.910Z,24.21
2018-04-19T11:49:36.063Z,23.77
2018-04-19T11:52:04.230Z,24.37
2018-04-19T11:54:32.364Z,23.95
2018-04-19T11:57:00.584Z,24.46
2018-04-19T11:59:28.713Z,24.31
2018-04-19T12:01:56.849Z,23.52
2018-04-19T12:04:24.987Z,24.06
2018-04-19T12:06:53.135Z,24.23
2018-04-19T12:09:21.290Z,23.90
2018-04-19T12:11:49.463Z,23.69
2018-04-19T12:14:17.593Z,23.95
2018-04-19T12:16:47.650Z,23.64
2018-04-19T12:19:15.860Z,24.02
2018-04-19T12:21:43.957Z,24.49
2018-04-19T12:24:12.069Z,23.38
2018-04-19T12:26:40.234Z,23.00
2018-04-19T12:29:08.357Z,23.76
2018-04-19T12:31:36.635Z,23.98
2018-04-19T12:34:04.813Z,22.99
2018-04-19T12:36:32.934Z,23.65
2018-04-19T12:39:01.079Z,22.90
2018-04-19T12:41:29.221Z,22.51
2018-04-19T12:43:57.355Z,23.37
2018-04-19T12:46:25.506Z,22.57
2018-04-19T12:48:53.625Z,22.66
2018-04-19T12:51:21.797Z,23.27
2018-04-19T12:53:49.920Z,21.67
2018-04-19T12:56:18.072Z,23.38
2018-04-19T12:58:46.196Z,22.54
2018-04-19T13:01:14.342Z,21.50
2018-04-19T13:03:42.492Z,21.20
2018-04-19T13:06:10.627Z,21.90
2018-04-19T13:08:38.784Z,22.44
2018-04-19T13:11:06.900Z,22.93
2018-04-19T13:13:35.920Z,22.04
2018-04-19T13:16:04.077Z,21.06
2018-04-19T13:18:32.193Z,22.18
2018-04-19T13:21:00.361Z,21.53
2018-04-19T13:23:28.514Z,20.99
2018-04-19T13:25:56.704Z,21.55
2018-04-19T13:28:24.768Z,21.47
2018-04-19T13:30:52.902Z,21.52
2018-04-19T13:33:21.070Z,21.93
2018-04-19T13:35:49.190Z,22.03
2018-04-19T13:38:17.326Z,21.51
2018-04-19T13:40:45.476Z,22.18
2018-04-19T13:43:13.610Z,20.77
2018-04-19T13:45:41.752Z,21.63
2018-04-19T13:48:10.058Z,21.74
2018-04-19T13:50:38.171Z,21.10
2018-04-19T13:53:06.328Z,20.38
2018-04-19T13:55:34.489Z,21.19
2018-04-19T13:58:02.615Z,21.04
2018-04-19T14:00:30.729Z,20.99
2018-04-19T14:02:58.923Z,20.26
2018-04-19T14:05:27.061Z,20.85
2018-04-19T14:07:55.164Z,20.34
2018-04-19T14:10:23.310Z,20.99
2018-04-19T14:12:51.467Z,21.24
2018-04-19T14:15:19.628Z,20.21
2018-04-19T14:17:47.763Z,20.70
2018-04-19T14:20:15.897Z,20.88
2018-04-19T14:22:44.024Z,20.72
2018-04-19T14:25:12.172Z,19.35
2018-04-19T14:27:40.293Z,19.56
2018-04-19T14:30:08.413Z,20.64
2018-04-19T14:32:36.557Z,19.68
2018-04-19T14:35:04.697Z,19.65
2018-04-19T14:37:32.831Z,19.87
2018-04-19T14:40:00.988Z,20.51
2018-04-19T14:42:29.110Z,19.89
2018-04-19T14:44:57.243Z,20.28
2018-04-19T14:47:25.821Z,20.38
2018-04-19T14:49:53.928Z,19.74
2018-04-19T14:52:22.066Z,20.76
2018-04-19T14:54:50.219Z,19.94
2018-04-19T14:57:18.348Z,20.79
2018-04-19T14:59:46.475Z,20.62
2018-04-19T15:02:14.632Z,20.79
2018-04-19T15:04:42.737Z,20.13
2018-04-19T15:07:10.892Z,20.38
2018-04-19T15:09:39.049Z,20.79
2018-04-19T15:12:07.182Z,20.21
2018-04-19T15:14:35.311Z,20.28
2018-04-19T15:17:03.495Z,20.49
2018-04-19T15:19:31.642Z,19.94
2018-04-19T15:21:59.862Z,20.07
2018-04-19T15:24:27.972Z,20.13
2018-04-19T15:26:56.122Z,21.32
2018-04-19T15:29:24.266Z,20.85
2018-04-19T15:31:52.393Z,20.70
2018-04-19T15:34:20.526Z,20.20
2018-04-19T15:36:49.563Z,19.49
2018-04-19T15:39:17.720Z,20.00
2018-04-19T15:41:45.836Z,20.20
2018-04-19T15:44:13.971Z,20.96
2018-04-19T15:46:42.134Z,20.66
2018-04-19T15:49:10.267Z,19.76
2018-04-19T15:51:38.409Z,20.91
2018-04-19T15:54:06.540Z,20.21
2018-04-19T15:56:34.689Z,20.64
2018-04-19T15:59:02.888Z,21.19
2018-04-19T16:01:30.969Z,20.41
2018-04-19T16:03:59.100Z,21.16
2018-04-19T16:06:27.240Z,19.24
2018-04-19T16:08:55.416Z,19.02
2018-04-19T16:11:23.569Z,19.77
2018-04-19T16:13:51.709Z,18.52
2018-04-19T16:16:19.836Z,18.56
2018-04-19T16:18:47.973Z,19.37
2018-04-19T16:21:16.131Z,19.70
2018-04-19T16:23:44.271Z,19.66
2018-04-19T16:26:12.381Z,19.88
2018-04-19T16:31:08.646Z,19.60
2018-04-19T16:33:36.783Z,19.30
2018-04-19T16:36:04.919Z,19.66
2018-04-19T16:38:33.078Z,19.22
2018-04-19T16:41:01.213Z,19.38
2018-04-19T16:43:29.326Z,20.38
2018-04-19T16:46:01.060Z,20.52
2018-04-19T16:48:29.201Z,20.89
2018-04-19T16:50:57.351Z,20.50
2018-04-19T16:53:25.498Z,20.72
2018-04-19T16:55:53.620Z,20.80
2018-04-19T16:58:21.724Z,21.61
2018-04-19T17:00:49.870Z,20.50
2018-04-19T17:03:18.003Z,20.65
2018-04-19T17:05:46.104Z,20.77
2018-04-19T17:08:14.304Z,19.94
2018-04-19T17:10:42.417Z,20.79
2018-04-19T17:13:10.607Z,20.94
2018-04-19T17:15:38.754Z,21.60
2018-04-19T17:18:06.883Z,22.24
2018-04-19T17:20:34.980Z,21.87
2018-04-19T17:23:03.154Z,22.68
2018-04-19T17:25:32.176Z,22.01
2018-04-19T17:28:00.660Z,22.75
2018-04-19T17:30:32.205Z,22.63
2018-04-19T17:33:00.342Z,22.87
2018-04-19T17:35:28.497Z,23.75
2018-04-19T17:37:56.645Z,24.05
2018-04-19T17:40:24.805Z,24.80
2018-04-19T17:42:52.887Z,25.01
2018-04-19T17:45:21.132Z,25.06
2018-04-19T17:47:49.261Z,25.58
2018-04-19T17:50:17.387Z,26.06
2018-04-19T17:52:45.571Z,26.38
2018-04-19T17:55:13.716Z,26.93
2018-04-19T17:57:41.831Z,27.50
2018-04-19T18:00:09.960Z,27.61
2018-04-19T18:02:39.258Z,28.56
2018-04-19T18:05:07.370Z,29.12
2018-04-19T18:07:35.515Z,29.35
2018-04-19T18:10:03.668Z,30.39
2018-04-19T18:12:31.813Z,30.98
2018-04-19T18:14:59.951Z,31.44
2018-04-19T18:17:28.079Z,31.84
2018-04-19T18:19:56.226Z,32.12
2018-04-19T18:22:24.359Z,32.90
2018-04-19T18:24:52.496Z,33.41
2018-04-19T18:27:20.680Z,33.47
2018-04-19T18:29:48.840Z,33.64
2018-04-19T18:32:16.977Z,33.40
2018-04-19T18:34:45.110Z,33.52
2018-04-19T18:37:13.260Z,33.60
2018-04-19T18:39:41.445Z,33.95
2018-04-19T18:42:09.524Z,34.08
2018-04-19T18:44:41.310Z,34.30
2018-04-19T18:47:09.425Z,34.65
2018-04-19T18:49:37.539Z,34.59
2018-04-19T18:52:05.676Z,35.39
2018-04-19T18:54:33.827Z,36.09
2018-04-19T18:57:02.000Z,35.84
2018-04-19T18:59:30.352Z,36.22
2018-04-19T19:01:58.477Z,36.96
2018-04-19T19:04:26.617Z,37.39
2018-04-19T19:06:54.759Z,36.78
2018-04-19T19:09:22.884Z,37.37
2018-04-19T19:11:51.008Z,37.51
2018-04-19T19:14:32.837Z,37.32
2018-04-19T19:17:01.142Z,38.02
2018-04-19T19:19:41.126Z,38.35
2018-04-19T19:22:09.248Z,39.29
2018-04-19T19:24:37.407Z,38.77
2018-04-19T19:27:05.562Z,39.12
2018-04-19T19:29:33.713Z,39.54
2018-04-19T19:32:01.846Z,39.13
2018-04-19T19:34:30.143Z,39.48
2018-04-19T19:36:58.271Z,39.85
2018-04-19T19:39:26.420Z,40.06
2018-04-19T19:41:54.573Z,40.60
2018-04-19T19:44:22.710Z,40.77
2018-04-19T19:46:50.842Z,40.72
2018-04-19T19:49:18.979Z,41.58
2018-04-19T19:51:47.119Z,41.94
2018-04-19T19:54:15.256Z,41.58
2018-04-19T19:56:46.955Z,41.45
2018-04-19T19:59:15.113Z,42.15
2018-04-19T20:01:43.235Z,42.25
2018-04-19T20:04:11.428Z,42.61
2018-04-19T20:06:39.551Z,42.52
2018-04-19T20:09:07.652Z,42.18
2018-04-19T20:11:35.800Z,42.57
2018-04-19T20:14:04.559Z,42.52
2018-04-19T20:16:32.671Z,43.00
2018-04-19T20:19:00.809Z,43.09
2018-04-19T20:21:28.964Z,43.63
2018-04-19T20:23:57.113Z,43.45
2018-04-19T20:26:25.297Z,43.63
2018-04-19T20:28:53.425Z,44.01
2018-04-19T20:31:21.579Z,44.09
2018-04-19T20:33:49.830Z,44.94
2018-04-19T20:36:17.927Z,45.00
2018-04-19T20:38:46.052Z,45.01
2018-04-19T20:41:14.297Z,45.04
2018-04-19T20:43:42.436Z,45.99
2018-04-19T20:46:10.718Z,45.85
2018-04-19T20:48:38.885Z,46.59
2018-04-19T20:51:06.998Z,46.84
2018-04-19T20:53:35.130Z,46.43
2018-04-19T20:56:03.269Z,46.71
2018-04-19T20:58:31.408Z,47.02
2018-04-19T21:00:59.539Z,47.42
2018-04-19T21:03:27.722Z,47.83
2018-04-19T21:05:55.856Z,46.90
2018-04-19T21:08:23.971Z,46.97
2018-04-19T21:10:52.122Z,47.10
2018-04-19T21:13:20.295Z,47.82
2018-04-19T21:15:48.412Z,47.11
2018-04-19T21:18:16.585Z,47.37
2018-04-19T21:20:44.747Z,47.64
2018-04-19T21:23:12.940Z,47.15
2018-04-19T21:25:41.268Z,46.75
2018-04-19T21:28:09.404Z,46.50
2018-04-19T21:30:37.558Z,45.92
2018-04-19T21:33:05.721Z,44.08
2018-04-19T21:35:33.875Z,43.38
2018-04-19T21:38:02.066Z,42.96
2018-04-19T21:40:30.216Z,42.97
2018-04-19T21:42:58.618Z,42.36
2018-04-19T21:45:26.742Z,41.20
2018-04-19T21:47:55.068Z,40.99
2018-04-19T21:50:23.203Z,41.00
2018-04-19T21:52:51.354Z,39.88
2018-04-19T21:55:19.478Z,39.98
2018-04-19T21:57:47.615Z,39.94
2018-04-19T22:00:19.226Z,40.14
2018-04-19T22:02:47.354Z,40.27
2018-04-19T22:05:15.465Z,40.82
2018-04-19T22:07:43.580Z,40.34
2018-04-19T22:10:11.891Z,40.53
2018-04-19T22:12:40.041Z,40.15
2018-04-19T22:15:08.148Z,40.37
2018-04-19T22:17:36.291Z,40.46
2018-04-19T22:20:04.425Z,40.86
2018-04-19T22:22:32.538Z,40.77
2018-04-19T22:25:00.695Z,40.77
2018-04-19T22:27:28.827Z,40.92
2018-04-19T22:29:56.949Z,41.05
2018-04-19T22:32:25.080Z,41.23
2018-04-19T22:34:53.219Z,41.20
2018-04-19T22:37:21.348Z,41.43
2018-04-19T22:39:50.024Z,41.81
2018-04-19T22:42:18.157Z,41.76
2018-04-19T22:44:46.264Z,41.60
2018-04-19T22:47:14.405Z,41.69
2018-04-19T22:49:42.834Z,41.99
2018-04-19T22:52:10.971Z,41.12
2018-04-19T22:54:39.100Z,41.03
2018-04-19T22:57:07.226Z,41.50
2018-04-19T22:59:35.357Z,42.23
2018-04-19T23:02:03.507Z,42.45
2018-04-19T23:04:31.613Z,42.61
2018-04-19T23:06:59.742Z,42.25
2018-04-19T23:09:28.123Z,42.54
2018-04-19T23:11:56.298Z,42.78
2018-04-19T23:14:24.480Z,42.86
2018-04-19T23:16:52.621Z,43.27
2018-04-19T23:19:20.836Z,42.81
2018-04-19T23:21:48.971Z,43.10
2018-04-19T23:24:17.123Z,42.62
2018-04-19T23:26:49.964Z,42.45
2018-04-19T23:29:18.085Z,42.69
2018-04-19T23:31:46.211Z,43.32
2018-04-19T23:34:14.348Z,42.97
2018-04-19T23:36:42.705Z,43.37
2018-04-19T23:39:10.834Z,43.43
2018-04-19T23:41:38.961Z,43.36
2018-04-19T23:44:07.121Z,43.95
2018-04-19T23:46:35.246Z,44.22
2018-04-19T23:49:03.357Z,45.22
